weather.gov     
National Weather Service

Terminal Aerodrome Forecast
NWS Homepage
This page is being discontinued on March 12, 2014.
The same data is available at this site. Please update your bookmarks.
Thank you, and we apologize for the inconvenience.
Please send an email to SR-SRH.Webmaster@noaa.gov with any concerns.


Current Version
Previous Version:    01  02  03  04  05  06  07  08  09  10  11  12  13  14  15  16  17  18  19  20  21  22  23  24  25  26  27  28  29  30  
   31  
[Printable]
725
FTUS43 KDMX 221139
TAFDSM
TAF
KDSM 221139Z 2212/2312 19007KT 1/4SM -DZ FG BKN002 OVC007
      TEMPO 2213/2216 1SM BR SCT002 OVC007
     FM221600 20011KT 3SM BR BKN009 OVC014
     FM221800 20012KT 6SM BR SCT012 BKN020
     FM230700 19012KT 3SM BR OVC010=




725
FTUS43 KDMX 221139
TAFDSM
TAF
KDSM 221139Z 2212/2312 19007KT 1/4SM -DZ FG BKN002 OVC007
      TEMPO 2213/2216 1SM BR SCT002 OVC007
     FM221600 20011KT 3SM BR BKN009 OVC014
     FM221800 20012KT 6SM BR SCT012 BKN020
     FM230700 19012KT 3SM BR OVC010=


U.S. Dept. of Commerce
NOAA National Weather Service
1325 East West Highway
Silver Spring, MD 20910
E-mail: w-nws.webmaster@noaa.gov
Page last modified: May 16, 2007
NATIONAL WEATHER SERVICE: for Safety, for Work, for Fun - FOR LIFE